Time;durP1;ratioP1;P1;durP2;ratioP2;P2;SDS_P1;SDS_P2;PMS_P1;PMS_P2;Temp;Humidity;BMP_temperature;BMP_pressure;BME280_temperature;BME280_humidity;BME280_pressure;Samples;Min_cycle;Max_cycle;Signal;HPM_P1;HPM_P2
2021/01/02 00:00:51;;;;;;;54.60;26.00;;;1.60;99.90;;;;;;4980597;28;20030;-61
2021/01/02 00:03:48;;;;;;;54.55;25.48;;;1.60;99.90;;;;;;4961208;28;21309;-60
2021/01/02 00:06:26;;;;;;;51.85;24.08;;;1.60;99.90;;;;;;4980349;28;20447;-58
2021/01/02 00:09:00;;;;;;;45.50;22.70;;;1.60;99.90;;;;;;4984559;28;20404;-61
2021/01/02 00:11:40;;;;;;;46.38;24.45;;;1.60;99.90;;;;;;4963389;28;20514;-60
2021/01/02 00:14:16;;;;;;;54.80;25.38;;;1.60;99.90;;;;;;4981554;28;20034;-61
2021/01/02 00:16:44;;;;;;;59.55;25.70;;;1.60;99.90;;;;;;4984985;28;20041;-59
2021/01/02 00:19:28;;;;;;;76.65;31.17;;;1.60;99.90;;;;;;4986820;28;20030;-59
2021/01/02 00:22:04;;;;;;;55.95;25.98;;;1.60;99.90;;;;;;4982742;28;20105;-62
2021/01/02 00:24:35;;;;;;;61.80;27.88;;;1.60;99.90;;;;;;4990508;28;20037;-60
2021/01/02 00:27:07;;;;;;;51.58;25.23;;;1.60;99.90;;;;;;4983341;28;20072;-58
2021/01/02 00:29:58;;;;;;;57.83;27.80;;;1.60;99.90;;;;;;4983815;28;20081;-63
2021/01/02 00:32:39;;;;;;;80.43;34.30;;;1.60;99.90;;;;;;4981732;28;20034;-59
2021/01/02 00:35:15;;;;;;;74.45;31.40;;;1.60;99.90;;;;;;4978949;28;20139;-61
2021/01/02 00:37:42;;;;;;;73.90;32.58;;;1.50;99.90;;;;;;4984551;28;20105;-60
2021/01/02 00:40:08;;;;;;;69.72;31.80;;;1.50;99.90;;;;;;4982900;28;20070;-57
2021/01/02 00:42:35;;;;;;;71.45;32.92;;;1.60;99.90;;;;;;4985205;28;20525;-56
2021/01/02 00:45:03;;;;;;;78.90;33.05;;;1.60;99.90;;;;;;4984837;28;20027;-64
2021/01/02 00:47:33;;;;;;;69.55;31.77;;;1.60;99.90;;;;;;4985141;28;20039;-60
2021/01/02 00:50:00;;;;;;;65.28;30.92;;;1.70;99.90;;;;;;4981658;28;20044;-57
2021/01/02 00:52:50;;;;;;;70.82;32.85;;;1.70;99.90;;;;;;4982838;28;20046;-58
2021/01/02 00:55:25;;;;;;;65.30;29.88;;;1.70;99.90;;;;;;4982390;28;20037;-62
2021/01/02 00:58:15;;;;;;;60.08;27.10;;;1.70;99.90;;;;;;4982368;28;20033;-59
2021/01/02 01:00:43;;;;;;;53.65;26.98;;;1.70;99.90;;;;;;4981833;28;20130;-58
2021/01/02 01:03:31;;;;;;;53.88;25.60;;;1.60;99.90;;;;;;4983224;28;20101;-61
2021/01/02 01:06:02;;;;;;;48.85;24.17;;;1.60;99.90;;;;;;4983466;28;20096;-62
2021/01/02 01:08:32;;;;;;;55.55;27.33;;;1.60;99.90;;;;;;4984898;28;20048;-59
2021/01/02 01:11:02;;;;;;;55.33;25.83;;;1.60;99.90;;;;;;4971454;28;20050;-60
2021/01/02 01:13:28;;;;;;;65.38;28.90;;;1.60;99.90;;;;;;4982575;28;20026;-58
2021/01/02 01:15:56;;;;;;;72.55;30.20;;;1.60;99.90;;;;;;4985054;28;20382;-58
2021/01/02 01:18:46;;;;;;;65.07;31.15;;;1.60;99.90;;;;;;4985616;28;20073;-61
2021/01/02 01:21:15;;;;;;;58.20;27.77;;;1.60;99.90;;;;;;4978782;28;20058;-64
2021/01/02 01:23:55;;;;;;;58.35;29.42;;;1.70;99.90;;;;;;4985453;28;20419;-60
2021/01/02 01:26:29;;;;;;;68.00;32.42;;;1.60;99.90;;;;;;4980213;28;20030;-61
2021/01/02 01:28:59;;;;;;;58.83;27.17;;;1.60;99.90;;;;;;4984966;28;20038;-57
2021/01/02 01:31:29;;;;;;;60.72;27.77;;;1.70;99.90;;;;;;4981545;28;20034;-58
2021/01/02 01:34:02;;;;;;;65.60;31.77;;;1.60;99.90;;;;;;4988866;28;20721;-57
2021/01/02 01:36:34;;;;;;;73.85;32.40;;;1.60;99.90;;;;;;4980420;28;20029;-65
2021/01/02 01:39:05;;;;;;;69.10;32.70;;;1.60;99.90;;;;;;4979162;28;20079;-61
2021/01/02 01:41:38;;;;;;;75.55;33.85;;;1.60;99.90;;;;;;4984398;28;20030;-59
2021/01/02 01:44:09;;;;;;;74.38;31.50;;;1.60;99.90;;;;;;4972951;28;20095;-58
2021/01/02 01:46:54;;;;;;;63.15;30.40;;;1.60;99.90;;;;;;4980056;28;20063;-58
2021/01/02 01:49:31;;;;;;;56.10;25.52;;;1.70;99.90;;;;;;4978168;28;20066;-60
2021/01/02 01:51:59;;;;;;;49.70;25.35;;;1.70;99.90;;;;;;4978154;28;20397;-64
2021/01/02 01:54:56;;;;;;;48.95;26.02;;;1.70;99.90;;;;;;4986810;28;20046;-65
2021/01/02 01:57:26;;;;;;;48.72;25.90;;;1.70;99.90;;;;;;4983965;28;20037;-60
2021/01/02 02:00:04;;;;;;;46.83;23.30;;;1.70;99.90;;;;;;4982432;28;20618;-63
2021/01/02 02:02:38;;;;;;;43.47;23.52;;;1.60;99.90;;;;;;4982609;28;20022;-60
2021/01/02 02:05:05;;;;;;;43.20;22.60;;;1.70;99.90;;;;;;4982315;28;20074;-60
2021/01/02 02:07:50;;;;;;;48.25;23.38;;;1.70;99.90;;;;;;4980126;28;20023;-61
2021/01/02 02:10:33;;;;;;;44.90;23.92;;;1.70;99.90;;;;;;4964519;28;20512;-58
2021/01/02 02:13:00;;;;;;;44.70;22.90;;;1.70;99.90;;;;;;4977048;28;20042;-62
2021/01/02 02:15:28;;;;;;;43.80;22.77;;;1.70;99.90;;;;;;4975226;28;20034;-59
2021/01/02 02:18:07;;;;;;;46.63;23.23;;;1.70;99.90;;;;;;4975376;28;20022;-61
2021/01/02 02:20:34;;;;;;;43.83;21.80;;;1.60;99.90;;;;;;4998498;28;20026;-56
2021/01/02 02:23:07;;;;;;;39.80;20.17;;;1.70;99.90;;;;;;4986882;28;20035;-62
2021/01/02 02:25:57;;;;;;;39.17;21.73;;;1.70;99.90;;;;;;4985528;28;20027;-59
2021/01/02 02:28:41;;;;;;;43.47;22.50;;;1.70;99.90;;;;;;4985852;28;20030;-60
2021/01/02 02:31:07;;;;;;;43.55;23.02;;;1.70;99.90;;;;;;4985190;28;20030;-60
2021/01/02 02:33:37;;;;;;;47.40;22.98;;;1.70;99.90;;;;;;4987283;28;20049;-60
2021/01/02 02:36:06;;;;;;;48.10;22.23;;;1.60;99.90;;;;;;4981265;28;20041;-60
2021/01/02 02:38:38;;;;;;;41.65;22.45;;;1.60;99.90;;;;;;4980786;28;20030;-59
2021/01/02 02:41:09;;;;;;;45.05;22.33;;;1.60;99.90;;;;;;4983236;28;20062;-60
2021/01/02 02:43:39;;;;;;;41.40;21.33;;;1.60;99.90;;;;;;4985973;28;20378;-58
2021/01/02 02:46:11;;;;;;;37.58;20.75;;;1.60;99.90;;;;;;4987987;28;20030;-59
2021/01/02 02:48:37;;;;;;;45.75;22.98;;;1.60;99.90;;;;;;4982605;28;20071;-57
2021/01/02 02:51:04;;;;;;;41.92;22.05;;;1.60;99.90;;;;;;4980719;28;20129;-59
2021/01/02 02:53:30;;;;;;;42.03;22.23;;;1.60;99.90;;;;;;4985058;28;20034;-57
2021/01/02 02:55:55;;;;;;;37.67;21.30;;;1.60;99.90;;;;;;4987016;28;20084;-61
2021/01/02 02:58:21;;;;;;;44.83;22.50;;;1.60;99.90;;;;;;4986692;28;20065;-58
2021/01/02 03:00:46;;;;;;;48.58;23.13;;;1.60;99.90;;;;;;4986460;28;20102;-62
2021/01/02 03:03:13;;;;;;;39.53;21.08;;;1.60;99.90;;;;;;4977953;28;20174;-57
2021/01/02 03:05:40;;;;;;;40.47;21.63;;;1.60;99.90;;;;;;4980685;28;20085;-61
2021/01/02 03:08:07;;;;;;;40.47;21.35;;;1.60;99.90;;;;;;4986934;28;20026;-60
2021/01/02 03:10:33;;;;;;;47.67;22.48;;;1.60;99.90;;;;;;4971362;28;20042;-62
2021/01/02 03:12:58;;;;;;;42.15;22.20;;;1.60;99.90;;;;;;4985956;28;20034;-62
2021/01/02 03:15:26;;;;;;;43.10;22.30;;;1.60;99.90;;;;;;4982423;28;20038;-60
2021/01/02 03:17:53;;;;;;;41.72;21.73;;;1.60;99.90;;;;;;4986022;28;20023;-61
2021/01/02 03:20:19;;;;;;;39.78;21.77;;;1.60;99.90;;;;;;4982924;28;20023;-51
2021/01/02 03:22:46;;;;;;;44.65;22.15;;;1.60;99.90;;;;;;4985912;28;20088;-60
2021/01/02 03:25:14;;;;;;;44.63;22.38;;;1.70;99.90;;;;;;4981274;28;20404;-58
2021/01/02 03:27:40;;;;;;;43.90;20.63;;;1.70;99.90;;;;;;4985840;28;20054;-60
2021/01/02 03:30:11;;;;;;;39.83;20.88;;;1.60;99.90;;;;;;4979518;28;20716;-60
2021/01/02 03:32:38;;;;;;;40.95;20.77;;;1.60;99.90;;;;;;4987521;28;20052;-58
2021/01/02 03:35:06;;;;;;;38.88;19.80;;;1.60;99.90;;;;;;4981021;28;20038;-60
2021/01/02 03:37:33;;;;;;;44.40;20.92;;;1.60;99.90;;;;;;4987905;28;20564;-58
2021/01/02 03:39:59;;;;;;;33.97;18.77;;;1.60;99.90;;;;;;4979474;28;20121;-59
2021/01/02 03:42:25;;;;;;;36.22;19.45;;;1.60;99.90;;;;;;4984930;28;20127;-60
2021/01/02 03:44:50;;;;;;;42.38;22.05;;;1.60;99.90;;;;;;4987411;28;20166;-58
2021/01/02 03:47:16;;;;;;;37.05;18.83;;;1.60;99.90;;;;;;4984919;28;20029;-55
2021/01/02 03:49:42;;;;;;;37.55;19.90;;;1.60;99.90;;;;;;4986386;28;20032;-58
2021/01/02 03:52:07;;;;;;;34.85;18.98;;;1.60;99.90;;;;;;4985115;28;20126;-61
2021/01/02 03:54:34;;;;;;;32.90;17.58;;;1.60;99.90;;;;;;4946374;28;20037;-58
2021/01/02 03:57:00;;;;;;;41.53;19.75;;;1.60;99.90;;;;;;4984552;28;20038;-60
2021/01/02 03:59:26;;;;;;;34.70;19.45;;;1.60;99.90;;;;;;4985564;28;20030;-58
2021/01/02 04:01:59;;;;;;;39.63;18.92;;;1.60;99.90;;;;;;4983906;28;20030;-60
2021/01/02 04:04:25;;;;;;;37.53;19.05;;;1.60;99.90;;;;;;4986423;28;20104;-58
2021/01/02 04:06:51;;;;;;;45.00;21.58;;;1.50;99.90;;;;;;4979972;28;20034;-60
2021/01/02 04:09:20;;;;;;;39.67;19.50;;;1.50;99.90;;;;;;4983765;28;20455;-62
2021/01/02 04:11:47;;;;;;;40.28;20.42;;;1.50;99.90;;;;;;4967482;28;20054;-59
2021/01/02 04:14:13;;;;;;;36.47;19.45;;;1.50;99.90;;;;;;4985086;28;20504;-59
2021/01/02 04:16:40;;;;;;;38.10;19.73;;;1.50;99.90;;;;;;4987060;28;20034;-60
2021/01/02 04:19:07;;;;;;;37.60;20.15;;;1.50;99.90;;;;;;4984837;28;20022;-57
2021/01/02 04:21:33;;;;;;;41.17;20.77;;;1.60;99.90;;;;;;4987181;28;20093;-58
2021/01/02 04:23:59;;;;;;;39.15;19.33;;;1.60;99.90;;;;;;4982947;28;20057;-61
2021/01/02 04:26:25;;;;;;;36.00;19.63;;;1.50;99.90;;;;;;4981653;28;20058;-60
2021/01/02 04:28:52;;;;;;;38.78;20.33;;;1.60;99.90;;;;;;4985020;28;20109;-57
2021/01/02 04:31:19;;;;;;;39.72;18.73;;;1.60;99.90;;;;;;4986654;28;20630;-56
2021/01/02 04:33:45;;;;;;;38.25;19.95;;;1.60;99.90;;;;;;4984455;28;20028;-62
2021/01/02 04:36:15;;;;;;;39.58;20.27;;;1.50;99.90;;;;;;4987005;28;20106;-59
2021/01/02 04:38:42;;;;;;;40.53;19.83;;;1.60;99.90;;;;;;4984962;28;20025;-62
2021/01/02 04:41:07;;;;;;;37.85;19.60;;;1.60;99.90;;;;;;4985520;28;20084;-55
2021/01/02 04:43:33;;;;;;;38.08;19.08;;;1.60;99.90;;;;;;4981650;28;20015;-58
2021/01/02 04:46:01;;;;;;;38.63;19.98;;;1.60;99.90;;;;;;4986333;28;20026;-56
2021/01/02 04:48:27;;;;;;;41.33;19.90;;;1.60;99.90;;;;;;4985053;28;20089;-56
2021/01/02 04:50:53;;;;;;;38.85;19.90;;;1.60;99.90;;;;;;4985863;28;20038;-57
2021/01/02 04:53:20;;;;;;;38.67;20.45;;;1.60;99.90;;;;;;4984416;28;20076;-60
2021/01/02 04:55:46;;;;;;;41.15;22.85;;;1.60;99.90;;;;;;4978367;28;20554;-59
2021/01/02 04:58:19;;;;;;;36.65;20.95;;;1.60;99.90;;;;;;4985425;28;20054;-55
2021/01/02 05:00:47;;;;;;;42.20;22.20;;;1.60;99.90;;;;;;4982426;28;20030;-57
2021/01/02 05:03:12;;;;;;;38.83;21.48;;;1.60;99.90;;;;;;4986267;28;20623;-55
2021/01/02 05:05:42;;;;;;;41.95;22.17;;;1.60;99.90;;;;;;4985653;28;20084;-60
2021/01/02 05:08:07;;;;;;;41.08;21.40;;;1.60;99.90;;;;;;4978220;28;20058;-61
2021/01/02 05:10:33;;;;;;;42.90;22.23;;;1.60;99.90;;;;;;4967976;28;20069;-64
2021/01/02 05:13:12;;;;;;;38.45;20.83;;;1.60;99.90;;;;;;4986394;28;20089;-57
2021/01/02 05:15:38;;;;;;;50.22;23.83;;;1.60;99.90;;;;;;4988003;28;20018;-60
2021/01/02 05:18:04;;;;;;;44.42;22.65;;;1.60;99.90;;;;;;4988045;28;20025;-58
2021/01/02 05:20:30;;;;;;;43.72;22.35;;;1.50;99.90;;;;;;4985272;28;20023;-62
2021/01/02 05:23:07;;;;;;;41.30;20.80;;;1.50;99.90;;;;;;4985039;28;20026;-61
2021/01/02 05:25:32;;;;;;;44.33;22.33;;;1.50;99.90;;;;;;4981798;28;20030;-59
2021/01/02 05:27:58;;;;;;;39.60;20.42;;;1.50;99.90;;;;;;4981203;28;20038;-60
2021/01/02 05:30:32;;;;;;;40.13;21.60;;;1.50;99.90;;;;;;4988145;28;20146;-56
2021/01/02 05:33:08;;;;;;;42.65;19.60;;;1.50;99.90;;;;;;4989804;28;20097;-58
2021/01/02 05:35:44;;;;;;;40.65;20.77;;;1.50;99.90;;;;;;4982176;28;20038;-61
2021/01/02 05:38:21;;;;;;;41.33;20.48;;;1.50;99.90;;;;;;4977825;28;20699;-58
2021/01/02 05:40:49;;;;;;;41.38;21.45;;;1.60;99.90;;;;;;4989221;28;20022;-59
2021/01/02 05:43:16;;;;;;;46.50;21.75;;;1.60;99.90;;;;;;4988276;28;20023;-59
2021/01/02 05:45:42;;;;;;;44.13;21.23;;;1.50;99.90;;;;;;4989947;28;20046;-60
2021/01/02 05:48:14;;;;;;;38.63;19.83;;;1.50;99.90;;;;;;4986087;28;20114;-57
2021/01/02 05:50:56;;;;;;;42.67;21.52;;;1.50;99.90;;;;;;4983392;28;20125;-61
2021/01/02 05:53:24;;;;;;;45.05;21.27;;;1.50;99.90;;;;;;4984588;28;20034;-60
2021/01/02 05:56:17;;;;;;;49.03;21.17;;;1.50;99.90;;;;;;4987468;28;20037;-62
2021/01/02 05:58:44;;;;;;;39.50;21.42;;;1.50;99.90;;;;;;4986049;28;20030;-58
2021/01/02 06:01:15;;;;;;;49.17;23.30;;;1.50;99.90;;;;;;4989514;28;20666;-59
2021/01/02 06:03:45;;;;;;;48.78;22.58;;;1.50;99.90;;;;;;4987582;28;20735;-60
2021/01/02 06:06:13;;;;;;;41.97;21.73;;;1.40;99.90;;;;;;4989885;28;20018;-61
2021/01/02 06:08:41;;;;;;;44.95;22.95;;;1.50;99.90;;;;;;4988500;28;20026;-62
2021/01/02 06:11:09;;;;;;;48.63;23.40;;;1.40;99.90;;;;;;4978306;28;20037;-63
2021/01/02 06:13:38;;;;;;;41.35;20.90;;;1.40;99.90;;;;;;4983490;28;20126;-61
2021/01/02 06:16:06;;;;;;;41.35;21.67;;;1.40;99.90;;;;;;4987886;28;20029;-60
2021/01/02 06:18:40;;;;;;;42.03;20.80;;;1.40;99.90;;;;;;4985599;28;20171;-61
2021/01/02 06:21:13;;;;;;;;;;;1.40;99.90;;;;;;4984085;28;20515;-61
2021/01/02 06:23:40;;;;;;;43.28;21.40;;;1.40;99.90;;;;;;4984227;28;19914;-59
2021/01/02 06:26:08;;;;;;;43.75;20.70;;;1.40;99.90;;;;;;4977838;28;20112;-62
2021/01/02 06:28:35;;;;;;;40.97;20.63;;;1.50;99.90;;;;;;4983774;28;20113;-61
2021/01/02 06:31:15;;;;;;;49.55;23.65;;;1.40;99.90;;;;;;4989021;28;20026;-62
2021/01/02 06:33:49;;;;;;;41.38;21.40;;;1.40;99.90;;;;;;4977836;28;20491;-60
2021/01/02 06:36:33;;;;;;;;;;;1.30;99.90;;;;;;4988876;28;20061;-59
2021/01/02 06:39:18;;;;;;;46.53;20.90;;;1.30;99.90;;;;;;4978718;28;19917;-57
2021/01/02 06:41:44;;;;;;;47.28;22.77;;;1.30;99.90;;;;;;4980475;28;20039;-62
2021/01/02 06:44:10;;;;;;;46.97;23.48;;;1.20;99.90;;;;;;4989101;28;20036;-59
2021/01/02 06:46:36;;;;;;;53.17;23.45;;;1.20;99.90;;;;;;4988711;28;20603;-61
2021/01/02 06:49:39;;;;;;;47.55;24.75;;;1.20;99.90;;;;;;4984875;28;20081;-59
2021/01/02 06:52:05;;;;;;;49.38;23.90;;;1.20;99.90;;;;;;4984585;28;20034;-62
2021/01/02 06:54:30;;;;;;;45.63;21.85;;;1.20;99.90;;;;;;4974946;28;20096;-59
2021/01/02 06:57:04;;;;;;;44.45;22.15;;;1.30;99.90;;;;;;4986089;28;20046;-61
2021/01/02 06:59:29;;;;;;;49.33;23.23;;;1.30;99.90;;;;;;4982286;28;20054;-61
2021/01/02 07:01:55;;;;;;;48.40;23.33;;;1.30;99.90;;;;;;4987287;28;20085;-60
2021/01/02 07:04:37;;;;;;;51.10;23.27;;;1.30;99.90;;;;;;4988882;28;20125;-62
2021/01/02 07:07:05;;;;;;;40.97;21.20;;;1.40;99.90;;;;;;4981261;28;20026;-63
2021/01/02 07:09:31;;;;;;;49.65;23.13;;;1.40;99.90;;;;;;4986503;28;20037;-61
2021/01/02 07:12:13;;;;;;;47.78;23.15;;;1.30;99.90;;;;;;4972357;28;20061;-60
2021/01/02 07:14:40;;;;;;;49.50;22.70;;;1.40;99.90;;;;;;4983994;28;20027;-61
2021/01/02 07:17:11;;;;;;;45.92;22.70;;;1.40;99.90;;;;;;4983681;28;20026;-60
2021/01/02 07:19:42;;;;;;;44.42;22.92;;;1.30;99.90;;;;;;4986292;28;20030;-59
2021/01/02 07:22:26;;;;;;;40.03;21.42;;;1.40;99.90;;;;;;4978037;28;20030;-60
2021/01/02 07:24:53;;;;;;;;;;;1.40;99.90;;;;;;4978033;28;20027;-58
2021/01/02 07:27:21;;;;;;;51.05;22.83;;;1.40;99.90;;;;;;4984677;28;20048;-59
2021/01/02 07:29:48;;;;;;;47.88;22.48;;;1.40;99.90;;;;;;4989763;28;20034;-61
2021/01/02 07:32:20;;;;;;;48.97;23.88;;;1.40;99.90;;;;;;4990002;28;20029;-59
2021/01/02 07:34:50;;;;;;;49.03;24.23;;;1.40;99.90;;;;;;4983556;28;20121;-59
2021/01/02 07:37:17;;;;;;;46.42;22.77;;;1.40;99.90;;;;;;4984697;28;20467;-60
2021/01/02 07:39:56;;;;;;;46.08;21.98;;;1.50;99.90;;;;;;4986700;28;20030;-61
2021/01/02 07:42:23;;;;;;;49.72;22.90;;;1.50;99.90;;;;;;4986483;28;20120;-59
2021/01/02 07:44:55;;;;;;;44.72;23.42;;;1.50;99.90;;;;;;4987643;28;20049;-62
2021/01/02 07:47:21;;;;;;;41.78;22.75;;;1.50;99.90;;;;;;4984366;28;20038;-59
2021/01/02 07:49:47;;;;;;;48.75;23.55;;;1.50;99.90;;;;;;4985857;28;20037;-55
2021/01/02 07:52:12;;;;;;;42.90;23.08;;;1.50;99.90;;;;;;4986258;28;20037;-57
2021/01/02 07:54:38;;;;;;;44.35;23.10;;;1.50;99.90;;;;;;4980078;28;20038;-59
2021/01/02 07:57:06;;;;;;;45.42;22.33;;;1.50;99.90;;;;;;4983098;28;20026;-59
2021/01/02 07:59:39;;;;;;;46.22;22.02;;;1.50;99.90;;;;;;4982414;28;20019;-60
2021/01/02 08:02:08;;;;;;;46.35;24.13;;;1.50;99.90;;;;;;4987523;28;20029;-62
2021/01/02 08:04:34;;;;;;;42.42;21.70;;;1.50;99.90;;;;;;4985965;28;20400;-55
2021/01/02 08:07:04;;;;;;;46.85;23.88;;;1.50;99.90;;;;;;4977674;28;20459;-61
2021/01/02 08:09:35;;;;;;;49.40;25.33;;;1.60;99.90;;;;;;4985356;28;20034;-59
2021/01/02 08:12:08;;;;;;;44.97;21.27;;;1.60;99.90;;;;;;4973822;28;20038;-61
2021/01/02 08:14:35;;;;;;;37.55;21.08;;;1.60;99.90;;;;;;4983027;28;20058;-61
2021/01/02 08:17:09;;;;;;;41.60;21.05;;;1.60;99.90;;;;;;4984340;28;20034;-62
2021/01/02 08:19:48;;;;;;;43.30;20.48;;;1.60;99.90;;;;;;4984901;28;20030;-62
2021/01/02 08:22:26;;;;;;;38.13;20.30;;;1.70;99.90;;;;;;4981778;28;20035;-62
2021/01/02 08:25:00;;;;;;;35.30;20.17;;;1.70;99.90;;;;;;4986449;28;20594;-57
2021/01/02 08:27:28;;;;;;;37.78;19.42;;;1.80;99.90;;;;;;4981449;28;20619;-60
2021/01/02 08:29:54;;;;;;;38.17;20.23;;;1.70;99.90;;;;;;4985088;28;20030;-62
2021/01/02 08:32:23;;;;;;;39.75;19.70;;;1.80;99.90;;;;;;4984548;28;20014;-62
2021/01/02 08:34:49;;;;;;;42.42;22.15;;;1.80;99.90;;;;;;4979554;28;20436;-58
2021/01/02 08:37:17;;;;;;;36.25;19.63;;;1.70;99.90;;;;;;4975707;28;20540;-61
2021/01/02 08:39:43;;;;;;;38.53;21.15;;;1.70;99.90;;;;;;4986589;28;20022;-62
2021/01/02 08:42:09;;;;;;;41.00;21.67;;;1.70;99.90;;;;;;4984784;28;20027;-59
2021/01/02 08:44:45;;;;;;;33.90;19.63;;;1.80;99.90;;;;;;4986744;28;20040;-61
2021/01/02 08:47:22;;;;;;;35.35;19.67;;;1.90;99.90;;;;;;4977452;28;20528;-60
2021/01/02 08:49:48;;;;;;;37.85;19.80;;;1.90;99.90;;;;;;4981467;28;20110;-62
2021/01/02 08:52:24;;;;;;;41.10;21.38;;;2.00;99.90;;;;;;4985255;28;20117;-61
2021/01/02 08:55:07;;;;;;;38.75;20.73;;;2.10;99.90;;;;;;4985724;28;20084;-62
2021/01/02 08:57:35;;;;;;;43.15;21.50;;;2.10;99.90;;;;;;4982571;28;20054;-62
2021/01/02 09:00:21;;;;;;;37.25;20.75;;;2.20;99.90;;;;;;4985958;28;20030;-63
2021/01/02 09:02:59;;;;;;;47.60;23.38;;;2.20;99.90;;;;;;4983272;28;20029;-61
2021/01/02 09:05:30;;;;;;;38.47;20.65;;;2.20;99.90;;;;;;4984510;28;20023;-60
2021/01/02 09:08:01;;;;;;;39.42;21.40;;;2.30;99.90;;;;;;4983831;28;20038;-62
2021/01/02 09:10:37;;;;;;;36.40;19.85;;;2.30;99.90;;;;;;4982010;28;20110;-58
2021/01/02 09:13:05;;;;;;;37.05;19.85;;;2.40;99.90;;;;;;4972611;28;20054;-62
2021/01/02 09:15:49;;;;;;;34.03;19.08;;;2.40;99.90;;;;;;4981577;28;20026;-61
2021/01/02 09:18:17;;;;;;;37.95;21.15;;;2.50;99.90;;;;;;4973766;28;20026;-60
2021/01/02 09:20:43;;;;;;;41.83;23.05;;;2.50;99.90;;;;;;4982658;28;20511;-58
2021/01/02 09:23:09;;;;;;;35.35;21.10;;;2.60;99.90;;;;;;4983158;28;20432;-61
2021/01/02 09:25:38;;;;;;;40.00;20.85;;;2.70;99.90;;;;;;4979081;28;20172;-61
2021/01/02 09:28:10;;;;;;;39.13;20.52;;;2.70;99.90;;;;;;4984114;28;20034;-62
2021/01/02 09:30:36;;;;;;;38.80;21.08;;;2.80;99.90;;;;;;4985900;28;20039;-59
2021/01/02 09:33:01;;;;;;;36.50;20.85;;;2.80;99.90;;;;;;4980361;28;20031;-62
2021/01/02 09:35:27;;;;;;;46.40;25.23;;;2.80;99.90;;;;;;4982046;28;20040;-58
2021/01/02 09:37:52;;;;;;;58.58;33.80;;;2.90;99.90;;;;;;4981921;28;20048;-59
2021/01/02 09:40:20;;;;;;;37.95;22.65;;;3.00;99.90;;;;;;4984476;28;20032;-62
2021/01/02 09:42:46;;;;;;;37.33;20.42;;;3.00;99.90;;;;;;4985074;28;20034;-60
2021/01/02 09:45:13;;;;;;;36.15;19.45;;;3.20;99.90;;;;;;4984734;28;20045;-61
2021/01/02 09:47:38;;;;;;;35.58;19.92;;;3.20;99.90;;;;;;4984530;28;20476;-60
2021/01/02 09:50:05;;;;;;;32.33;19.00;;;3.30;99.90;;;;;;4982284;28;20068;-61
2021/01/02 09:52:31;;;;;;;38.13;20.15;;;3.50;99.90;;;;;;4983674;28;20049;-60
2021/01/02 09:54:57;;;;;;;35.88;20.13;;;3.60;99.90;;;;;;4984606;28;20053;-62
2021/01/02 09:57:22;;;;;;;32.30;18.85;;;3.60;99.90;;;;;;4986196;28;20396;-61
2021/01/02 09:59:48;;;;;;;34.95;18.85;;;3.60;99.90;;;;;;5002112;28;20037;-56
2021/01/02 10:02:13;;;;;;;32.95;19.35;;;3.60;99.90;;;;;;4987977;28;20057;-61
2021/01/02 10:04:47;;;;;;;34.92;19.33;;;3.40;99.90;;;;;;4986109;28;20029;-60
2021/01/02 10:07:14;;;;;;;39.80;21.83;;;3.40;99.90;;;;;;4987878;28;20029;-62
2021/01/02 10:09:47;;;;;;;42.33;22.13;;;3.40;99.90;;;;;;4987543;28;20054;-63
2021/01/02 10:12:14;;;;;;;39.17;21.75;;;3.40;99.90;;;;;;4983494;28;20034;-62
2021/01/02 10:14:40;;;;;;;41.90;22.10;;;3.50;99.90;;;;;;4965395;28;20081;-61
2021/01/02 10:17:06;;;;;;;50.92;29.67;;;3.50;99.90;;;;;;4987423;28;20453;-62
2021/01/02 10:19:32;;;;;;;40.38;23.15;;;3.50;99.90;;;;;;4988569;28;20093;-61
2021/01/02 10:21:59;;;;;;;34.95;19.98;;;3.60;99.90;;;;;;4981067;28;20045;-61
2021/01/02 10:24:25;;;;;;;32.88;19.52;;;3.70;99.90;;;;;;4988315;28;20108;-61
2021/01/02 10:26:51;;;;;;;31.50;19.20;;;3.70;99.90;;;;;;4987158;28;20037;-61
2021/01/02 10:29:16;;;;;;;30.67;19.08;;;3.60;99.90;;;;;;4983984;28;20023;-62
2021/01/02 10:31:43;;;;;;;30.90;18.95;;;3.70;99.90;;;;;;4986940;28;20026;-61
2021/01/02 10:34:08;;;;;;;31.88;18.58;;;3.70;99.90;;;;;;4986189;28;20045;-61
2021/01/02 10:36:34;;;;;;;31.52;18.35;;;3.80;99.90;;;;;;4986074;28;20027;-61
2021/01/02 10:38:59;;;;;;;31.15;19.02;;;3.90;99.90;;;;;;4986268;28;20109;-61
2021/01/02 10:41:25;;;;;;;33.97;20.02;;;3.80;99.90;;;;;;4986657;28;20105;-62
2021/01/02 10:43:51;;;;;;;31.58;20.50;;;3.80;99.90;;;;;;4985268;28;20034;-63
2021/01/02 10:46:16;;;;;;;30.85;17.70;;;3.80;99.90;;;;;;4985968;28;20061;-60
2021/01/02 10:48:42;;;;;;;31.67;18.13;;;3.80;99.90;;;;;;4986111;28;20026;-61
2021/01/02 10:51:15;;;;;;;37.90;21.38;;;3.80;99.90;;;;;;4987498;28;20053;-60
2021/01/02 10:53:41;;;;;;;35.63;20.33;;;3.90;99.90;;;;;;4986172;28;20656;-60
2021/01/02 10:56:12;;;;;;;37.80;22.27;;;3.90;99.90;;;;;;4984003;28;20037;-60
2021/01/02 10:58:38;;;;;;;30.75;17.95;;;4.00;99.90;;;;;;4986491;28;20026;-56
2021/01/02 11:01:05;;;;;;;32.65;18.83;;;4.00;99.90;;;;;;4988690;28;20049;-59
2021/01/02 11:03:31;;;;;;;35.25;18.25;;;4.10;99.90;;;;;;4987292;28;20735;-54
2021/01/02 11:06:07;;;;;;;35.40;19.33;;;4.10;99.90;;;;;;4982449;28;20061;-62
2021/01/02 11:08:34;;;;;;;30.83;19.33;;;4.10;99.90;;;;;;4980638;28;20030;-61
2021/01/02 11:11:00;;;;;;;35.85;22.67;;;4.20;99.90;;;;;;4983111;28;20053;-61
2021/01/02 11:13:26;;;;;;;34.00;22.27;;;4.20;99.90;;;;;;4968438;28;20052;-60
2021/01/02 11:15:51;;;;;;;34.40;18.60;;;4.30;99.90;;;;;;4985128;28;20030;-61
2021/01/02 11:18:17;;;;;;;27.20;16.45;;;4.20;99.90;;;;;;4978560;28;20030;-60
2021/01/02 11:20:45;;;;;;;32.20;19.40;;;4.30;99.90;;;;;;4983758;28;20117;-60
2021/01/02 11:23:11;;;;;;;33.33;18.58;;;4.30;99.90;;;;;;4981161;28;20117;-63
2021/01/02 11:25:36;;;;;;;35.45;19.92;;;4.20;99.90;;;;;;4984086;28;20732;-58
2021/01/02 11:28:02;;;;;;;35.60;19.88;;;4.30;99.90;;;;;;4992735;28;20030;-58
2021/01/02 11:30:28;;;;;;;29.45;18.25;;;4.30;99.90;;;;;;4987266;28;20026;-60
2021/01/02 11:32:53;;;;;;;32.88;18.88;;;4.30;99.90;;;;;;4986079;28;20106;-59
2021/01/02 11:35:19;;;;;;;30.88;18.80;;;4.30;99.90;;;;;;4994446;28;20588;-61
2021/01/02 11:37:45;;;;;;;33.63;19.08;;;4.40;99.90;;;;;;4991402;28;20049;-58
2021/01/02 11:40:11;;;;;;;33.47;20.10;;;4.60;99.90;;;;;;4988491;28;20026;-62
2021/01/02 11:42:37;;;;;;;34.75;20.38;;;4.70;99.90;;;;;;4985299;28;20564;-60
2021/01/02 11:45:05;;;;;;;34.53;19.55;;;4.50;99.90;;;;;;4989273;28;20101;-58
2021/01/02 11:47:30;;;;;;;35.10;19.00;;;4.40;99.90;;;;;;4985068;28;20030;-62
2021/01/02 11:49:56;;;;;;;31.83;17.88;;;4.50;99.90;;;;;;4965243;28;20030;-61
2021/01/02 11:52:21;;;;;;;29.50;18.17;;;4.60;99.90;;;;;;4982975;28;20042;-60
2021/01/02 11:54:47;;;;;;;34.33;18.38;;;4.60;99.90;;;;;;4989846;28;20022;-61
2021/01/02 11:57:12;;;;;;;33.45;18.30;;;4.70;99.90;;;;;;4987587;28;20026;-58
2021/01/02 11:59:42;;;;;;;29.27;18.25;;;4.70;99.90;;;;;;4990134;28;20033;-57
2021/01/02 12:02:08;;;;;;;30.58;18.65;;;4.80;99.90;;;;;;4988035;28;20540;-61
2021/01/02 12:04:34;;;;;;;30.98;18.88;;;4.80;99.90;;;;;;4984480;28;20026;-56
2021/01/02 12:07:00;;;;;;;31.77;18.45;;;5.00;99.90;;;;;;4984880;28;20030;-57
2021/01/02 12:09:27;;;;;;;35.58;18.83;;;5.00;99.90;;;;;;4989881;28;20049;-59
2021/01/02 12:11:55;;;;;;;34.20;18.67;;;4.90;99.90;;;;;;4989300;28;20026;-60
2021/01/02 12:14:29;;;;;;;34.28;20.33;;;4.70;99.90;;;;;;4987179;28;20494;-61
2021/01/02 12:16:56;;;;;;;31.65;19.08;;;4.60;99.90;;;;;;4988304;28;20033;-61
2021/01/02 12:19:25;;;;;;;31.80;18.60;;;4.50;99.90;;;;;;4990155;28;20194;-58
2021/01/02 12:21:55;;;;;;;37.80;22.08;;;4.50;99.90;;;;;;4986451;28;20475;-62
2021/01/02 12:24:21;;;;;;;29.75;17.60;;;4.50;99.90;;;;;;4990052;28;20037;-63
2021/01/02 12:26:51;;;;;;;33.05;20.42;;;4.60;99.90;;;;;;4988413;28;20035;-59
2021/01/02 12:29:19;;;;;;;34.45;18.50;;;4.60;99.90;;;;;;4987504;28;20022;-62
2021/01/02 12:31:51;;;;;;;28.60;16.85;;;4.70;99.90;;;;;;4989245;28;20030;-62
2021/01/02 12:34:17;;;;;;;33.03;18.85;;;4.70;99.90;;;;;;4988608;28;20374;-58
2021/01/02 12:36:44;;;;;;;32.25;19.77;;;4.60;99.90;;;;;;4989025;28;20796;-60
2021/01/02 12:39:15;;;;;;;34.30;18.95;;;4.70;99.90;;;;;;4990072;28;20050;-63
2021/01/02 12:41:41;;;;;;;32.80;20.10;;;4.70;99.90;;;;;;4989442;28;20018;-60
2021/01/02 12:44:08;;;;;;;29.17;16.80;;;4.90;99.90;;;;;;4988128;28;20053;-57
2021/01/02 12:46:45;;;;;;;36.45;19.65;;;4.90;99.90;;;;;;4990436;28;20330;-57
2021/01/02 12:49:14;;;;;;;32.42;18.45;;;4.70;99.90;;;;;;4988336;28;20068;-58
2021/01/02 12:51:39;;;;;;;36.70;19.83;;;4.80;99.90;;;;;;5005804;28;20385;-58